Bartlett, Iowa
Current Conditions -  °F | °C
As of 7:35 AM on Friday 28 Nov 2014 (Local Time) from KPMV Reporting Station
Clear Clear  
Wind Chill: 19°   Ceiling: Unl
Heat Index: 28°   Visibility: 10mi
Dew Point: 22°   Wind: 9mph
Humidity: 80%   Direction: 160°SSE
Pressure: 29.91"   Gusts: NA
Location:  40.8429°N, 95.7754°W
Report Text: KPMV 281335Z AUTO 16008KT 10SM CLR M02/M05 A2991 RMK AO2 T10251055
Loading
Personal Weather Stations






























Interactive Weather Map New forecast layout! Learn more

10-Day Weather Forecast

Advertisements
Track Severe Weather on mobile